EKSB/SGD METAR and TAF weather

Enter ICAO airport designator
Station Type Date Time Source
EKSB METAR 2018/12/18 12:20 UTC NOAA

EKSB 181220Z 20009KT 170V240 8000 BKN006 05/05 Q1021


Station Type Date Time Source
EKSB Decoded METAR 2018/12/18 12:20 UTC NOAA

Soenderborg Lufthavn, Denmark (EKSB) 54-58N 009-47E 14M
Dec 18, 2018 - 07:20 AM EST / 2018.12.18 1220 UTC
Wind: from the SSW (200 degrees) at 10 MPH (9 KT) (direction variable):0
Visibility: 4 mile(s):0
Sky conditions: mostly cloudy
Temperature: 41 F (5 C)
Dew Point: 41 F (5 C)
Relative Humidity: 100%
Pressure (altimeter): 30.15 in. Hg (1021 hPa)
ob: EKSB 181220Z 20009KT 170V240 8000 BKN006 05/05 Q1021
cycle: 12

Station Type Date Time Source
EKSB TAF 2016/01/27 09:03 UTC NOAA

TAF TAF EKSB 270856Z 2709/2721 23022KT 5000 -RA BR BKN008
TEMPO 2709/2721 24025G40KT 2000 RADZ BKN004


Example: see airport list